Covington, Washington
Current Conditions -  °F | °C
As of 5:53 PM on Monday 24 Nov 2014 (Local Time) from KSEA Reporting Station
Overcast Overcast  
Wind Chill: 43°   Ceiling: 4200
Heat Index: 48°   Visibility: 10mi
Dew Point: 42°   Wind: 10mph
Humidity: 80%   Direction: 180°S
Pressure: 30.16"   Gusts: NA
Location:  47.3596°N, 122.107°W
Report Text: KSEA 250153Z 18009KT 10SM OVC042 09/06 A3016 RMK AO2 RAE0059 SLP221 P0000 T00890056
Loading
Personal Weather Stations






























Interactive Weather Map New forecast layout! Learn more

10-Day Weather Forecast

Advertisements
Track Severe Weather on mobile